Latest Weather Observations for Coonawarra

IDS60801

Issued at 11:31 am CDT Sunday 18 February 2018 (issued every 30 minutes, with the page automatically refreshed every 10 minutes)

About weather observations | Map of weather stations | Latest weather observations for SA | Other Formats
Station Details ID: 026091 Name: COONAWARRA Lat: -37.29 Lon: 140.83 Height: 57.0 m
Data from the previous 72 hours. | See also: Recent months at Coonawarra
Date/Time
CDT
Temp
°C
App
Temp
°C
Dew
Point
°C
Rel
Hum
%
Delta-T
°C
Wind Press
QNH
hPa
Press
MSL
hPa
Rain since
9am
mm
Dir  Spd
km/h
Gust
km/h
Spd
kts
Gust
kts
18/11:30am 19.6 16.8 12.7 64 3.9 S 19 22 10 12 1014.1 1013.9 0.0
18/11:00am 19.6 18.0 12.9 65 3.8 SSE 13 17 7 9 1014.1 1013.9 0.0
18/10:30am 19.3 17.7 12.9 66 3.6 SSE 13 20 7 11 1013.9 1013.7 0.0
18/10:00am 19.2 17.4 13.4 69 3.3 SSE 15 20 8 11 1013.8 1013.6 0.0
18/09:30am 17.7 16.4 13.7 77 2.3 SSE 13 17 7 9 1013.7 1013.5 0.0
18/09:00am 17.1 15.0 13.6 80 2.0 SSE 17 22 9 12 1013.3 1013.1 0.0
18/08:30am 16.0 14.7 13.7 86 1.3 SE 13 19 7 10 1013.0 1012.8 0.0
18/08:00am 14.6 13.5 13.2 91 0.8 S 11 15 6 8 1012.8 1012.6 0.0
18/07:30am 13.5 13.0 12.6 94 0.5 S 7 9 4 5 1012.3 1012.1 0.0
18/07:00am 13.1 12.6 12.5 96 0.3 SE 7 11 4 6 1011.9 1011.7 0.0
18/06:30am 13.1 12.1 12.2 94 0.5 S 9 15 5 8 1011.6 1011.4 0.0
18/06:00am 12.8 11.7 11.9 94 0.5 S 9 13 5 7 1011.5 1011.3 0.0
18/05:30am 12.4 11.5 11.5 94 0.5 SSW 7 11 4 6 1011.5 1011.3 0.0
18/05:00am 12.7 11.2 11.8 94 0.5 S 11 13 6 7 1011.3 1011.1 0.0
18/04:30am 12.4 10.7 11.3 93 0.6 S 11 13 6 7 1011.0 1010.8 0.0
18/04:00am 11.6 10.1 10.4 92 0.6 SSW 9 13 5 7 1011.2 1011.0 0.0
18/03:30am 12.0 10.9 10.7 92 0.7 S 7 9 4 5 1011.4 1011.2 0.0
18/03:00am 13.0 12.4 11.7 92 0.7 SE 6 7 3 4 1011.6 1011.4 0.0
18/02:30am 13.3 12.2 11.8 91 0.8 ESE 9 11 5 6 1011.4 1011.2 0.0
18/02:00am 13.9 12.8 12.1 89 1.0 ESE 9 9 5 5 1012.1 1011.9 0.0
18/01:30am 14.7 13.8 12.5 87 1.2 SE 9 11 5 6 1012.5 1012.3 0.0
18/01:00am 14.9 13.9 12.3 84 1.4 SE 9 11 5 6 1012.7 1012.5 0.0
18/12:30am 15.0 14.4 12.4 84 1.4 SE 7 9 4 5 1012.9 1012.7 0.0
18/12:00am 15.3 14.3 12.4 83 1.6 SSE 9 11 5 6 1012.8 1012.6 0.0
 
Date/Time
CDT
Temp
°C
App
Temp
°C
Dew
Point
°C
Rel
Hum
%
Delta-T
°C
Wind Press
QNH
hPa
Press
MSL
hPa
Rain since
9am
mm
Dir  Spd
km/h
Gust
km/h
Spd
kts
Gust
kts
17/11:30pm 15.2 14.1 12.1 82 1.7 S 9 11 5 6 1013.0 1012.8 0.0
17/11:00pm 15.6 14.5 11.9 78 2.0 SSE 9 13 5 7 1013.3 1013.1 0.0
17/10:30pm 16.3 15.3 12.3 77 2.2 SSE 9 13 5 7 1013.1 1012.9 0.0
17/10:00pm 16.9 15.9 12.2 74 2.6 S 9 11 5 6 1013.1 1012.9 0.0
17/09:30pm 17.7 15.8 11.9 69 3.2 SSW 13 15 7 8 1013.0 1012.8 0.0
17/09:00pm 18.4 16.0 11.5 64 3.8 SW 15 20 8 11 1013.0 1012.8 0.0
17/08:30pm 18.9 16.8 11.2 61 4.2 SW 13 15 7 8 1012.1 1011.9 0.0
17/08:00pm 20.0 17.9 11.1 56 4.9 SW 13 15 7 8 1011.7 1011.5 0.0
17/07:30pm 21.0 19.2 11.0 52 5.5 SW 11 17 6 9 1011.4 1011.2 0.0
17/07:00pm 21.6 19.0 10.7 50 6.0 SW 15 20 8 11 1011.6 1011.4 0.0
17/06:30pm 23.0 19.8 10.0 43 7.1 SW 17 22 9 12 1011.6 1011.4 0.0
17/06:00pm 23.4 20.6 9.9 42 7.4 WSW 15 22 8 12 1011.5 1011.3 0.0
17/05:30pm 23.7 21.6 9.6 40 7.7 SW 11 20 6 11 1011.3 1011.1 0.0
17/05:00pm 24.0 21.1 9.5 39 7.9 WSW 15 22 8 12 1011.4 1011.2 0.0
17/04:30pm 24.7 21.1 10.5 40 7.9 SW 20 32 11 17 1011.8 1011.6 0.0
17/04:00pm 25.2 22.0 10.0 38 8.4 SW 17 32 9 17 1012.0 1011.8 0.0
17/03:30pm 25.3 22.3 9.4 36 8.7 SSW 15 24 8 13 1011.9 1011.7 0.0
17/03:00pm 24.5 21.5 9.3 38 8.3 W 15 26 8 14 1012.3 1012.1 0.0
17/02:30pm 24.2 21.6 9.3 38 8.1 SW 13 24 7 13 1012.7 1012.5 0.0
17/02:00pm 23.8 20.7 9.0 39 8.0 W 15 24 8 13 1013.3 1013.1 0.0
17/01:30pm 22.8 20.1 8.8 40 7.5 WSW 13 26 7 14 1013.4 1013.2 0.0
17/01:00pm 22.5 19.1 9.1 42 7.2 W 17 30 9 16 1013.5 1013.3 0.0
17/12:30pm 21.5 19.2 9.1 45 6.6 W 11 22 6 12 1013.8 1013.6 0.0
17/12:00pm 19.9 18.0 8.9 49 5.8 WSW 9 17 5 9 1014.0 1013.8 0.0
17/11:30am 19.8 17.6 9.2 50 5.6 NW 11 20 6 11 1014.4 1014.2 0.0
17/11:00am 18.6 15.9 9.1 54 5.0 WNW 13 20 7 11 1015.0 1014.8 0.0
17/10:30am 18.3 15.6 9.1 55 4.8 W 13 19 7 10 1014.8 1014.6 0.0
17/10:00am 17.5 15.7 9.3 58 4.3 W 9 15 5 8 1014.8 1014.6 0.0
17/09:30am 16.7 14.9 9.4 62 3.8 NNW 9 11 5 6 1014.6 1014.4 0.0
17/09:00am 15.6 14.2 9.6 67 3.1 NNW 7 11 4 6 1014.6 1014.4 0.0
17/08:30am 13.7 12.3 9.4 75 2.2 NNE 7 9 4 5 1014.5 1014.3 0.0
17/08:00am 10.4 8.9 8.6 89 0.9 NNE 6 7 3 4 1014.4 1014.2 0.0
17/07:30am 8.4 7.7 7.1 91 0.6 CALM 0 0 0 0 1014.6 1014.4 0.0
17/07:00am 6.8 5.8 5.7 93 0.5 CALM 0 0 0 0 1014.7 1014.5 0.0
17/06:30am 5.5 4.2 4.1 91 0.6 CALM 0 0 0 0 1014.2 1014.0 0.0
17/06:00am 5.4 4.2 4.5 94 0.4 CALM 0 0 0 0 1013.6 1013.4 0.0
17/05:30am 5.9 3.7 5.2 95 0.3 NE 6 6 3 3 1013.0 1012.8 0.0
17/05:00am 6.4 4.1 5.0 91 0.6 NE 6 11 3 6 1012.7 1012.5 0.0
17/04:30am 6.1 4.9 4.7 91 0.6 CALM 0 0 0 0 1013.4 1013.2 0.0
17/04:00am 6.4 5.3 5.0 91 0.6 CALM 0 0 0 0 1013.3 1013.1 0.0
17/03:30am 6.8 5.8 5.5 91 0.6 CALM 0 0 0 0 1013.6 1013.4 0.0
17/03:00am 6.8 5.7 5.0 88 0.8 CALM 0 0 0 0 1013.7 1013.5 0.0
17/02:30am 7.1 6.1 5.5 89 0.7 CALM 0 0 0 0 1014.0 1013.8 0.0
17/02:00am 7.6 6.8 6.3 91 0.6 CALM 0 0 0 0 1014.0 1013.8 0.0
17/01:30am 8.3 7.6 7.0 91 0.6 CALM 0 0 0 0 1014.2 1014.0 0.0
17/01:00am 8.6 7.8 6.7 88 0.9 CALM 0 0 0 0 1014.6 1014.4 0.0
17/12:30am 8.5 7.8 6.8 89 0.8 CALM 0 4 0 2 1014.9 1014.7 0.0
17/12:00am 9.0 7.1 6.6 85 1.1 WSW 6 7 3 4 1015.1 1014.9 0.0
 
Date/Time
CDT
Temp
°C
App
Temp
°C
Dew
Point
°C
Rel
Hum
%
Delta-T
°C
Wind Press
QNH
hPa
Press
MSL
hPa
Rain since
9am
mm
Dir  Spd
km/h
Gust
km/h
Spd
kts
Gust
kts
16/11:30pm 9.5 7.7 7.0 84 1.2 SSW 6 9 3 5 1015.2 1015.0 0.0
16/11:00pm 10.1 8.8 7.8 86 1.1 S 4 6 2 3 1015.1 1014.9 0.0
16/10:30pm 11.5 10.3 8.2 80 1.6 S 4 6 2 3 1015.3 1015.1 0.0
16/10:00pm 13.3 11.3 8.5 72 2.4 S 9 9 5 5 1015.2 1015.0 0.0
16/09:30pm 14.1 12.1 8.5 69 2.8 S 9 11 5 6 1015.1 1014.9 0.0
16/09:00pm 14.4 11.9 8.2 66 3.1 SW 11 13 6 7 1015.1 1014.9 0.0
16/08:30pm 15.6 13.1 8.1 61 3.8 SW 11 15 6 8 1014.8 1014.6 0.0
16/08:00pm 17.2 13.4 7.7 53 4.8 SW 17 24 9 13 1014.8 1014.6 0.0
16/07:30pm 18.8 14.3 7.1 46 5.9 SW 20 30 11 16 1014.6 1014.4 0.0
16/07:00pm 20.4 15.8 6.3 40 7.1 SW 20 30 11 16 1014.2 1014.0 0.0
16/06:30pm 21.7 16.7 6.3 36 7.8 WSW 22 28 12 15 1014.0 1013.8 0.0
16/06:00pm 23.0 18.7 5.3 31 8.9 SW 17 28 9 15 1013.7 1013.5 0.0
16/05:30pm 23.7 19.0 5.2 30 9.3 WSW 19 28 10 15 1013.7 1013.5 0.0
16/05:00pm 23.6 18.9 5.1 30 9.3 SW 19 26 10 14 1013.9 1013.7 0.0
16/04:30pm 23.8 19.5 5.4 30 9.3 SW 17 22 9 12 1014.1 1013.9 0.0
16/04:00pm 23.6 19.3 5.4 30 9.2 SW 17 24 9 13 1014.1 1013.9 0.0
16/03:30pm 24.0 21.5 6.6 32 9.0 WSW 9 20 5 11 1014.3 1014.1 0.0
16/03:00pm 23.3 19.9 6.0 32 8.8 WSW 13 22 7 12 1014.5 1014.3 0.0
16/02:30pm 22.8 19.1 6.1 34 8.5 WSW 15 28 8 15 1014.8 1014.6 0.0
16/02:00pm 22.4 18.2 5.7 33 8.4 SW 17 26 9 14 1015.0 1014.8 0.0
16/01:30pm 22.1 18.7 5.8 34 8.2 SSW 13 22 7 12 1015.3 1015.1 0.0
16/01:00pm 21.5 18.1 7.6 40 7.2 WSW 15 22 8 12 1015.6 1015.4 0.0
16/12:30pm 20.6 17.6 7.6 43 6.7 SSW 13 20 7 11 1016.0 1015.9 0.0
16/12:00pm 19.9 16.5 7.6 45 6.3 SW 15 22 8 12 1016.3 1016.2 0.0
16/11:30am 19.8 16.3 8.7 48 5.8 SSW 17 24 9 13 1016.5 1016.4 0.0
16/11:00am 18.3 14.8 8.7 53 5.0 SSW 17 24 9 13 1016.9 1016.8 0.0
16/10:30am 17.7 14.3 9.1 57 4.5 SW 17 26 9 14 1017.0 1016.9 0.0
16/10:00am 17.8 14.2 9.9 60 4.2 SW 19 28 10 15 1016.7 1016.6 0.0
16/09:30am 16.7 14.2 10.9 68 3.1 SW 15 20 8 11 1016.5 1016.4 0.0
16/09:00am 15.5 13.3 10.8 73 2.5 SW 13 19 7 10 1016.5 1016.4 0.6
16/08:30am 13.8 13.4 13.1 96 0.4 SSW 7 11 4 6 1016.2 1016.1 0.6
16/08:00am 12.7 12.6 12.1 96 0.3 WSW 4 7 2 4 1016.1 1016.0 0.6
16/07:30am 10.5 10.7 10.5 100 0.0 CALM 0 0 0 0 1015.8 1015.6 0.6
16/07:00am 8.8 8.4 8.4 97 0.2 CALM 0 7 0 4 1015.4 1015.2 0.6
16/06:30am 8.9 8.6 8.5 97 0.2 CALM 0 0 0 0 1015.0 1014.8 0.6
16/06:00am 9.5 8.9 8.9 96 0.3 W 2 7 1 4 1014.7 1014.5 0.6
16/05:30am 10.2 10.2 9.8 97 0.2 CALM 0 0 0 0 1014.7 1014.5 0.6
16/05:00am 10.8 9.7 10.6 99 0.1 WSW 7 9 4 5 1014.8 1014.6 0.6
16/04:30am 12.1 11.3 11.7 97 0.2 W 7 9 4 5 1014.5 1014.3 0.6
16/04:00am 12.5 11.8 12.1 97 0.2 WSW 7 11 4 6 1014.4 1014.2 0.6
16/03:30am 12.0 11.1 11.4 96 0.3 WNW 7 9 4 5 1014.4 1014.2 0.6
16/03:00am 11.0 9.5 10.6 97 0.2 NW 9 11 5 6 1014.1 1013.9 0.6
16/02:30am 12.2 11.5 12.0 99 0.1 WNW 7 9 4 5 1013.9 1013.7 0.6
16/02:00am 13.1 12.6 12.7 97 0.2 WNW 7 9 4 5 1014.1 1013.9 0.6
16/01:30am 13.9 13.8 13.2 96 0.4 WSW 6 7 3 4 1014.3 1014.1 0.6
16/01:00am 14.3 14.7 13.8 97 0.3 SW 4 6 2 3 1014.5 1014.3 0.6
16/12:30am 14.7 14.6 14.0 96 0.4 WSW 7 9 4 5 1014.7 1014.5 0.6
16/12:00am 14.9 14.9 14.2 96 0.4 W 7 9 4 5 1014.6 1014.4 0.6
 
Date/Time
CDT
Temp
°C
App
Temp
°C
Dew
Point
°C
Rel
Hum
%
Delta-T
°C
Wind Press
QNH
hPa
Press
MSL
hPa
Rain since
9am
mm
Dir  Spd
km/h
Gust
km/h
Spd
kts
Gust
kts
15/11:30pm 15.0 14.3 14.3 96 0.4 W 11 15 6 8 1014.7 1014.5 0.6
15/11:00pm 14.7 14.6 13.8 94 0.5 WNW 7 11 4 6 1014.7 1014.5 0.6
15/10:30pm 14.7 14.8 14.0 96 0.4 W 6 7 3 4 1014.6 1014.4 0.6
15/10:00pm 15.1 14.7 14.0 93 0.6 WSW 9 11 5 6 1014.6 1014.4 0.6
15/09:30pm 15.5 13.1 13.7 89 1.0 SSW 19 26 10 14 1014.6 1014.4 0.0
15/09:00pm 16.5 15.4 13.1 80 1.9 WNW 11 15 6 8 1014.2 1014.0 0.0
15/08:30pm 17.1 15.6 13.0 77 2.3 W 13 17 7 9 1014.1 1013.9 0.0
15/08:00pm 17.3 14.6 12.8 75 2.5 W 19 26 10 14 1014.1 1013.9 0.0
15/07:30pm 18.0 15.7 13.0 72 2.8 W 17 26 9 14 1014.0 1013.8 0.0
15/07:00pm 17.8 15.0 13.2 74 2.6 W 20 28 11 15 1014.1 1013.9 0.0
15/06:30pm 18.1 15.4 13.5 74 2.6 W 20 28 11 15 1014.0 1013.8 0.0
15/06:00pm 17.2 14.8 13.7 80 2.0 W 19 26 10 14 1014.1 1013.9 0.0
15/05:30pm 17.6 14.0 14.1 80 2.0 WSW 26 35 14 19 1014.2 1014.0 0.0
15/05:00pm 20.2 16.1 11.3 56 4.9 W 24 33 13 18 1013.9 1013.7 0.0
15/04:30pm 19.8 15.5 11.9 60 4.4 W 26 35 14 19 1014.1 1013.9 0.0
15/04:00pm 19.4 14.8 12.2 63 4.0 W 28 44 15 24 1014.3 1014.1 0.0
15/03:30pm 20.2 16.1 11.5 57 4.8 WNW 24 32 13 17 1014.4 1014.2 0.0
15/03:00pm 19.6 16.3 12.7 64 3.9 W 22 32 12 17 1014.7 1014.5 0.0
15/02:30pm 19.7 15.9 11.1 57 4.7 WNW 22 32 12 17 1015.0 1014.8 0.0
15/02:00pm 19.9 16.2 11.6 58 4.6 WNW 22 32 12 17 1015.1 1014.9 0.0
15/01:30pm 18.4 14.1 10.8 61 4.1 W 24 32 13 17 1015.5 1015.3 0.0
15/01:00pm 18.8 14.2 9.5 54 4.9 WNW 24 37 13 20 1015.4 1015.2 0.0
15/12:30pm 18.9 14.8 10.1 56 4.7 W 22 35 12 19 1015.4 1015.2 0.0
15/12:00pm 18.4 14.3 10.2 59 4.4 W 22 32 12 17 1015.7 1015.5 0.0

Other Formats:

Comma delimited format used in spreadsheet applications
http://www.bom.gov.au/fwo/IDS60801/IDS60801.94817.axf

JavaScript Object Notation format (JSON) in row-major order
http://www.bom.gov.au/fwo/IDS60801/IDS60801.94817.json